createdAt,value
2019-02-27T07:12:55.315Z,216.00
2019-02-27T07:13:54.389Z,220.00
2019-02-27T07:14:54.375Z,220.00
2019-02-27T07:15:55.676Z,224.00
2019-02-27T07:16:57.181Z,224.00
2019-02-27T07:17:54.308Z,232.00
2019-02-27T07:18:54.276Z,232.00
2019-02-27T07:19:54.242Z,228.00
2019-02-27T07:20:55.597Z,228.00
2019-02-27T07:21:54.482Z,236.00
2019-02-27T07:22:54.151Z,236.00
2019-02-27T07:23:57.741Z,236.00
2019-02-27T07:24:54.150Z,244.00
2019-02-27T07:25:57.757Z,20.00
2019-02-27T07:26:57.778Z,200.00
2019-02-27T07:27:57.736Z,1496.00
2019-02-27T07:28:57.726Z,1512.00
2019-02-27T07:29:57.714Z,1524.00
2019-02-27T07:30:57.716Z,1532.00
2019-02-27T07:31:57.695Z,1544.00
2019-02-27T07:32:57.705Z,1556.00
2019-02-27T07:33:57.672Z,1564.00
2019-02-27T07:34:57.661Z,1576.00
2019-02-27T07:35:57.648Z,1588.00
2019-02-27T07:36:57.638Z,1596.00
2019-02-27T07:37:57.651Z,1608.00
2019-02-27T07:38:58.300Z,1616.00
2019-02-27T07:39:57.608Z,1624.00
2019-02-27T07:40:57.594Z,1636.00
2019-02-27T07:41:57.584Z,1648.00
2019-02-27T07:42:57.597Z,1656.00
2019-02-27T07:43:57.564Z,1668.00
2019-02-27T07:44:57.553Z,1680.00
2019-02-27T07:45:57.542Z,1688.00
2019-02-27T07:46:58.081Z,1696.00
2019-02-27T07:47:57.543Z,1704.00
2019-02-27T07:48:57.512Z,1720.00
2019-02-27T07:49:57.505Z,1728.00
2019-02-27T07:50:57.493Z,1732.00
2019-02-27T07:51:58.072Z,1744.00
2019-02-27T07:52:57.521Z,1752.00
2019-02-27T07:53:57.458Z,1760.00
2019-02-27T07:54:57.449Z,1764.00
2019-02-27T07:55:57.437Z,1776.00
2019-02-27T07:56:57.425Z,1784.00
2019-02-27T07:57:58.696Z,1796.00
2019-02-27T07:58:57.407Z,1804.00
2019-02-27T07:59:57.392Z,1816.00
2019-02-27T08:00:57.385Z,1828.00
2019-02-27T08:01:57.371Z,1836.00
2019-02-27T08:02:57.384Z,1856.00
2019-02-27T08:03:57.349Z,1864.00
2019-02-27T08:04:57.342Z,2040.00
2019-02-27T08:05:59.853Z,2028.00
2019-02-27T08:06:58.320Z,2040.00
2019-02-27T08:07:57.330Z,2056.00
2019-02-27T08:08:57.853Z,2076.00
2019-02-27T08:09:57.284Z,2096.00
2019-02-27T08:10:57.273Z,2116.00
2019-02-27T08:11:57.262Z,2132.00
2019-02-27T08:12:57.286Z,2152.00
2019-02-27T08:13:57.245Z,2168.00
2019-02-27T08:14:57.236Z,2184.00
2019-02-27T08:15:57.423Z,2200.00
2019-02-27T08:16:58.078Z,2212.00
2019-02-27T08:17:58.581Z,2220.00
2019-02-27T08:18:57.212Z,2232.00
2019-02-27T08:19:57.177Z,2240.00
2019-02-27T08:20:57.172Z,2248.00
2019-02-27T08:21:57.158Z,2256.00
2019-02-27T08:22:57.911Z,2268.00
2019-02-27T08:23:57.162Z,2276.00
2019-02-27T08:24:57.127Z,2284.00
2019-02-27T08:25:57.116Z,2292.00
2019-02-27T08:26:57.103Z,2304.00
2019-02-27T08:27:57.094Z,2312.00
2019-02-27T08:28:57.111Z,2320.00
2019-02-27T08:29:57.079Z,2328.00
2019-02-27T08:30:57.061Z,2336.00
2019-02-27T08:32:00.793Z,2348.00
2019-02-27T08:32:57.037Z,2360.00
2019-02-27T08:33:57.056Z,2368.00
2019-02-27T08:34:57.018Z,2380.00
2019-02-27T08:35:57.009Z,2388.00
2019-02-27T08:36:56.995Z,2400.00
2019-02-27T08:38:02.646Z,2412.00
2019-02-27T08:38:57.996Z,2420.00
2019-02-27T08:39:56.964Z,2436.00
2019-02-27T08:40:58.338Z,2452.00
2019-02-27T08:41:56.948Z,2468.00
2019-02-27T08:42:56.929Z,2484.00
2019-02-27T08:43:56.943Z,2500.00
2019-02-27T08:44:56.909Z,2520.00
2019-02-27T08:45:56.904Z,2536.00
2019-02-27T08:46:56.887Z,2552.00
2019-02-27T08:47:56.880Z,2572.00
2019-02-27T08:48:56.896Z,2588.00
2019-02-27T08:49:58.020Z,2616.00
2019-02-27T08:50:56.845Z,2640.00
2019-02-27T08:51:56.837Z,2660.00
2019-02-27T08:52:57.931Z,2684.00
2019-02-27T08:53:59.259Z,2708.00
2019-02-27T08:54:56.802Z,2744.00
2019-02-27T08:55:56.796Z,2776.00
2019-02-27T08:56:56.781Z,2812.00
2019-02-27T08:57:57.139Z,2852.00
2019-02-27T08:58:56.787Z,2888.00
2019-02-27T08:59:56.751Z,2916.00
2019-02-27T09:00:56.740Z,2940.00
2019-02-27T09:01:56.732Z,2960.00
2019-02-27T09:02:56.721Z,2980.00
2019-02-27T09:03:56.729Z,2996.00
2019-02-27T09:04:56.728Z,3012.00
2019-02-27T09:05:56.693Z,3028.00
2019-02-27T09:07:02.108Z,3048.00
2019-02-27T09:07:57.668Z,3060.00
2019-02-27T09:08:56.686Z,3080.00
2019-02-27T09:09:56.649Z,3096.00
2019-02-27T09:10:56.637Z,3116.00
2019-02-27T09:11:56.625Z,3140.00
2019-02-27T09:13:05.061Z,3152.00
2019-02-27T09:13:57.642Z,3172.00
2019-02-27T09:14:56.592Z,3196.00
2019-02-27T09:15:56.581Z,3212.00
2019-02-27T09:16:56.569Z,3228.00
2019-02-27T09:17:59.180Z,3260.00
2019-02-27T09:18:57.545Z,3280.00
2019-02-27T09:19:56.560Z,3300.00
2019-02-27T09:20:56.526Z,3324.00
2019-02-27T09:21:56.514Z,3344.00
2019-02-27T09:22:56.510Z,3364.00
2019-02-27T09:23:56.496Z,3388.00
2019-02-27T09:24:57.208Z,3412.00
2019-02-27T09:25:57.457Z,3432.00
2019-02-27T09:26:56.462Z,3448.00
2019-02-27T09:27:56.459Z,3468.00
2019-02-27T09:28:56.442Z,3488.00
2019-02-27T09:29:56.455Z,3512.00
2019-02-27T09:30:56.421Z,3532.00
2019-02-27T09:31:56.409Z,3556.00
2019-02-27T09:32:56.402Z,3576.00
2019-02-27T09:33:56.387Z,3588.00
2019-02-27T09:34:57.039Z,3604.00
2019-02-27T09:35:56.366Z,3608.00
2019-02-27T09:36:56.359Z,3612.00
2019-02-27T09:37:56.344Z,3624.00
2019-02-27T09:38:57.620Z,3628.00
2019-02-27T09:39:56.352Z,3632.00
2019-02-27T09:40:56.315Z,3632.00
2019-02-27T09:41:56.301Z,3628.00
2019-02-27T09:42:56.291Z,3636.00
2019-02-27T09:43:58.670Z,3632.00
2019-02-27T09:44:56.291Z,3624.00
2019-02-27T09:45:56.258Z,3624.00
2019-02-27T09:46:56.251Z,3624.00
2019-02-27T09:47:59.613Z,3620.00
2019-02-27T09:48:56.226Z,3616.00
2019-02-27T09:49:56.241Z,3616.00
2019-02-27T09:50:57.013Z,3612.00
2019-02-27T09:51:56.929Z,3620.00
2019-02-27T09:52:56.188Z,3616.00
2019-02-27T09:53:56.179Z,3616.00
2019-02-27T09:54:56.185Z,3616.00
2019-02-27T09:55:56.154Z,3612.00
2019-02-27T09:56:56.139Z,3608.00
2019-02-27T09:57:56.133Z,3612.00
2019-02-27T09:58:56.120Z,3608.00
2019-02-27T09:59:56.131Z,3608.00
2019-02-27T10:00:59.170Z,3612.00
2019-02-27T10:01:57.304Z,3604.00
2019-02-27T10:02:58.076Z,3608.00
2019-02-27T10:03:56.065Z,3612.00
2019-02-27T10:04:56.076Z,3612.00
2019-02-27T10:05:56.065Z,3616.00
2019-02-27T10:06:56.032Z,3616.00
2019-02-27T10:07:57.433Z,3612.00
2019-02-27T10:08:56.399Z,3612.00
2019-02-27T10:09:56.004Z,3620.00
2019-02-27T10:10:56.013Z,3616.00
2019-02-27T10:11:55.978Z,3620.00
2019-02-27T10:12:55.969Z,3624.00
2019-02-27T10:13:55.958Z,3628.00
2019-02-27T10:14:55.947Z,3632.00
2019-02-27T10:16:00.463Z,3636.00
2019-02-27T10:16:56.923Z,3636.00
2019-02-27T10:17:55.917Z,3632.00
2019-02-27T10:18:55.942Z,3636.00
2019-02-27T10:19:55.895Z,3636.00
2019-02-27T10:20:55.907Z,3636.00
2019-02-27T10:21:55.872Z,3628.00
2019-02-27T10:22:55.861Z,3624.00
2019-02-27T10:23:55.849Z,3624.00
2019-02-27T10:24:55.838Z,3624.00
2019-02-27T10:25:55.850Z,3628.00
2019-02-27T10:26:55.817Z,3624.00
2019-02-27T10:27:55.809Z,3624.00
2019-02-27T10:28:55.795Z,3620.00
2019-02-27T10:29:55.785Z,3620.00
2019-02-27T10:30:55.795Z,3624.00
2019-02-27T10:31:58.196Z,3624.00
2019-02-27T10:32:55.755Z,3632.00
2019-02-27T10:33:55.741Z,3632.00
2019-02-27T10:34:55.734Z,3628.00
2019-02-27T10:35:55.743Z,3636.00
2019-02-27T10:36:55.731Z,3632.00
2019-02-27T10:37:55.706Z,3628.00
2019-02-27T10:38:55.691Z,3624.00
2019-02-27T10:39:55.680Z,3628.00
2019-02-27T10:40:55.692Z,3628.00
2019-02-27T10:41:55.655Z,3628.00
2019-02-27T10:42:55.645Z,3640.00
2019-02-27T10:43:56.482Z,3632.00
2019-02-27T10:44:55.625Z,3632.00
2019-02-27T10:45:55.636Z,3636.00
2019-02-27T10:46:59.491Z,3632.00
2019-02-27T10:47:55.593Z,3628.00
2019-02-27T10:48:55.587Z,3620.00
2019-02-27T10:49:55.570Z,3616.00
2019-02-27T10:50:55.592Z,3608.00
2019-02-27T10:51:55.549Z,3608.00
2019-02-27T10:52:55.557Z,3608.00
2019-02-27T10:53:55.527Z,3612.00
2019-02-27T10:54:55.518Z,3596.00
2019-02-27T10:55:56.121Z,3596.00
2019-02-27T10:56:56.314Z,3588.00
2019-02-27T10:57:55.489Z,3588.00
2019-02-27T10:58:55.474Z,3584.00
2019-02-27T10:59:55.463Z,3576.00
2019-02-27T11:00:58.155Z,3576.00
2019-02-27T11:01:56.467Z,3572.00
2019-02-27T11:02:55.434Z,3576.00
2019-02-27T11:03:55.422Z,3568.00
2019-02-27T11:04:55.423Z,3568.00
2019-02-27T11:05:55.662Z,3568.00
2019-02-27T11:06:55.414Z,3636.00
2019-02-27T11:07:55.431Z,3652.00
2019-02-27T11:08:55.366Z,3652.00
2019-02-27T11:09:55.361Z,3648.00
2019-02-27T11:10:55.346Z,3648.00
2019-02-27T11:11:55.364Z,3644.00
2019-02-27T11:12:55.325Z,3648.00
2019-02-27T11:13:55.469Z,3652.00
2019-02-27T11:14:55.305Z,3652.00
2019-02-27T11:15:55.294Z,3656.00
2019-02-27T11:16:55.313Z,3656.00
2019-02-27T11:17:55.273Z,3652.00
2019-02-27T11:18:55.259Z,3652.00
2019-02-27T11:19:55.247Z,3648.00
2019-02-27T11:20:58.225Z,3644.00
2019-02-27T11:21:58.320Z,3648.00
2019-02-27T11:22:55.216Z,3652.00
2019-02-27T11:23:55.205Z,3648.00
2019-02-27T11:24:55.198Z,3640.00
2019-02-27T11:25:57.004Z,3616.00
2019-02-27T11:26:56.931Z,3628.00
2019-02-27T11:27:55.173Z,3636.00
2019-02-27T11:28:55.155Z,3692.00
2019-02-27T11:29:59.588Z,3764.00
2019-02-27T11:30:56.131Z,3836.00
2019-02-27T11:31:55.141Z,3904.00
2019-02-27T11:32:57.809Z,4008.00
2019-02-27T11:33:55.101Z,4296.00
2019-02-27T11:34:55.087Z,17088.00
2019-02-27T11:35:55.077Z,43072.00
2019-02-27T11:36:55.090Z,52384.00
2019-02-27T11:37:55.127Z,53120.00
2019-02-27T11:38:56.629Z,52512.00
2019-02-27T11:39:55.037Z,52608.00
2019-02-27T11:40:55.025Z,51648.00
2019-02-27T11:41:55.041Z,51584.00
2019-02-27T11:42:55.006Z,52672.00
2019-02-27T11:43:54.990Z,53472.00
2019-02-27T11:44:54.987Z,53472.00
2019-02-27T11:45:57.703Z,54176.00
2019-02-27T11:46:58.946Z,55232.00
2019-02-27T11:47:54.980Z,55392.00
2019-02-27T11:48:57.026Z,54144.00
2019-02-27T11:49:54.928Z,53344.00
2019-02-27T11:50:54.922Z,54464.00
2019-02-27T11:51:56.929Z,56928.00
2019-02-27T11:52:54.920Z,57280.00
2019-02-27T11:53:54.883Z,55840.00
2019-02-27T11:54:54.876Z,56192.00
2019-02-27T11:55:54.862Z,56832.00
2019-02-27T11:56:56.914Z,58016.00
2019-02-27T11:57:54.870Z,57344.00
2019-02-27T11:58:54.841Z,55840.00
2019-02-27T11:59:54.820Z,55776.00
2019-02-27T12:00:54.812Z,56800.00
2019-02-27T12:01:56.121Z,57664.00
2019-02-27T12:02:54.812Z,57824.00
2019-02-27T12:03:54.782Z,58624.00
2019-02-27T12:04:56.663Z,58944.00
2019-02-27T12:05:54.761Z,57600.00
2019-02-27T12:06:54.748Z,55488.00
2019-02-27T12:07:54.773Z,55904.00
2019-02-27T12:08:59.457Z,55712.00
2019-02-27T12:09:55.721Z,54304.00
2019-02-27T12:10:54.708Z,51520.00
2019-02-27T12:11:54.700Z,50624.00
2019-02-27T12:12:59.710Z,50944.00
2019-02-27T12:13:55.674Z,52704.00
2019-02-27T12:14:54.667Z,56928.00
2019-02-27T12:15:54.656Z,58208.00
2019-02-27T12:16:54.650Z,56544.00
2019-02-27T12:17:59.951Z,55808.00
2019-02-27T12:18:55.628Z,55552.00
2019-02-27T12:19:54.616Z,56128.00
2019-02-27T12:20:54.610Z,55872.00
2019-02-27T12:21:54.596Z,57184.00
2019-02-27T12:22:54.623Z,57280.00
2019-02-27T12:23:54.586Z,57568.00
2019-02-27T12:24:54.565Z,56832.00
2019-02-27T12:25:54.562Z,56736.00
2019-02-27T12:26:54.551Z,56256.00
2019-02-27T12:27:54.539Z,52704.00
2019-02-27T12:28:54.548Z,50624.00
2019-02-27T12:29:54.516Z,52864.00
2019-02-27T12:30:54.505Z,53472.00
2019-02-27T12:31:54.496Z,53760.00
2019-02-27T12:32:56.664Z,55264.00
2019-02-27T12:33:54.498Z,55680.00
2019-02-27T12:34:54.465Z,54016.00
2019-02-27T12:35:54.459Z,51936.00
2019-02-27T12:36:54.448Z,53440.00
2019-02-27T12:37:54.435Z,54336.00
2019-02-27T12:38:54.446Z,55200.00
2019-02-27T12:39:54.414Z,51840.00
2019-02-27T12:40:58.246Z,52704.00
2019-02-27T12:41:54.396Z,53984.00
2019-02-27T12:42:54.389Z,52928.00
2019-02-27T12:43:54.398Z,48576.00
2019-02-27T12:44:54.687Z,48352.00
2019-02-27T12:45:54.357Z,50656.00
2019-02-27T12:46:54.344Z,54016.00
2019-02-27T12:47:54.337Z,50656.00
2019-02-27T12:48:54.346Z,48704.00
2019-02-27T12:49:54.916Z,48864.00
2019-02-27T12:50:54.314Z,49696.00
2019-02-27T12:51:54.299Z,49888.00
2019-02-27T12:52:54.289Z,51168.00
2019-02-27T12:53:55.169Z,49120.00
2019-02-27T12:54:54.271Z,49600.00
2019-02-27T12:55:54.260Z,50944.00
2019-02-27T12:56:54.248Z,50400.00
2019-02-27T12:57:54.236Z,49120.00
2019-02-27T12:58:58.189Z,49600.00
2019-02-27T12:59:54.232Z,49344.00
2019-02-27T13:00:54.208Z,49696.00
2019-02-27T13:01:54.199Z,50528.00
2019-02-27T13:02:54.187Z,49952.00
2019-02-27T13:03:54.200Z,48224.00
2019-02-27T13:04:54.167Z,49056.00
2019-02-27T13:05:54.162Z,51712.00
2019-02-27T13:06:54.146Z,52384.00
2019-02-27T13:07:54.136Z,52128.00
2019-02-27T13:08:55.844Z,53120.00
2019-02-27T13:09:58.430Z,53056.00
2019-02-27T13:10:55.108Z,52832.00
2019-02-27T13:11:54.098Z,52864.00
2019-02-27T13:12:54.090Z,53728.00
2019-02-27T13:13:54.077Z,54560.00
2019-02-27T13:14:54.089Z,54752.00
2019-02-27T13:15:54.060Z,54848.00
2019-02-27T13:16:54.050Z,55680.00
2019-02-27T13:17:57.415Z,56192.00
2019-02-27T13:18:54.027Z,56512.00
2019-02-27T13:19:54.045Z,54528.00
2019-02-27T13:20:54.007Z,52608.00
2019-02-27T13:21:55.049Z,55648.00
2019-02-27T13:22:53.990Z,58912.00
2019-02-27T13:23:55.739Z,59040.00
2019-02-27T13:24:53.989Z,57216.00
2019-02-27T13:25:53.959Z,54816.00
2019-02-27T13:26:53.950Z,54048.00
2019-02-27T13:27:53.939Z,55424.00
2019-02-27T13:28:53.928Z,56288.00
2019-02-27T13:29:55.477Z,57280.00
2019-02-27T13:30:54.907Z,56704.00
2019-02-27T13:31:53.895Z,55840.00
2019-02-27T13:32:53.886Z,55552.00
2019-02-27T13:33:53.877Z,55776.00
2019-02-27T13:34:53.890Z,55392.00
2019-02-27T13:35:56.565Z,53728.00
2019-02-27T13:36:53.847Z,52448.00
2019-02-27T13:37:53.835Z,51648.00
2019-02-27T13:38:53.826Z,51840.00
2019-02-27T13:39:53.836Z,51744.00
2019-02-27T13:40:53.804Z,52384.00
2019-02-27T13:41:53.799Z,52704.00
2019-02-27T13:42:53.874Z,52160.00
2019-02-27T13:43:53.774Z,53184.00
2019-02-27T13:44:53.785Z,52576.00
2019-02-27T13:45:53.756Z,51040.00
2019-02-27T13:46:56.641Z,50944.00
2019-02-27T13:47:53.739Z,51520.00
2019-02-27T13:48:53.722Z,50976.00
2019-02-27T13:49:53.736Z,49792.00
2019-02-27T13:50:53.703Z,50528.00
2019-02-27T13:51:53.693Z,51168.00
2019-02-27T13:52:53.691Z,49760.00
2019-02-27T13:53:53.672Z,49280.00
2019-02-27T13:54:53.693Z,49760.00
2019-02-27T13:55:53.684Z,48608.00
2019-02-27T13:56:53.643Z,47968.00
2019-02-27T13:57:58.794Z,48608.00
2019-02-27T13:58:54.636Z,48704.00
2019-02-27T13:59:53.647Z,47936.00
2019-02-27T14:00:54.495Z,46592.00
2019-02-27T14:01:53.593Z,45056.00
2019-02-27T14:02:53.577Z,43424.00
2019-02-27T14:03:53.568Z,43488.00
2019-02-27T14:04:53.737Z,43968.00
2019-02-27T14:05:53.572Z,42208.00
2019-02-27T14:06:53.535Z,41600.00
2019-02-27T14:07:57.264Z,42624.00
2019-02-27T14:08:53.532Z,41888.00
2019-02-27T14:09:53.505Z,41824.00
2019-02-27T14:10:54.031Z,42208.00
2019-02-27T14:11:53.482Z,43168.00
2019-02-27T14:12:53.473Z,43072.00
2019-02-27T14:13:53.462Z,42688.00
2019-02-27T14:14:55.811Z,41312.00
2019-02-27T14:15:53.488Z,41472.00
2019-02-27T14:16:53.432Z,41632.00
2019-02-27T14:17:53.424Z,41152.00
2019-02-27T14:18:54.148Z,41792.00
2019-02-27T14:19:55.288Z,41696.00
2019-02-27T14:20:53.413Z,41664.00
2019-02-27T14:21:53.382Z,42464.00
2019-02-27T14:22:53.368Z,36128.00
2019-02-27T14:23:53.357Z,25536.00
2019-02-27T14:24:54.856Z,16224.00
2019-02-27T14:25:53.361Z,14848.00
2019-02-27T14:26:53.328Z,14588.00
2019-02-27T14:27:53.316Z,14444.00
2019-02-27T14:28:55.144Z,14352.00
2019-02-27T14:29:53.295Z,14212.00
2019-02-27T14:30:53.316Z,14156.00
2019-02-27T14:31:53.277Z,14048.00
2019-02-27T14:32:53.263Z,13940.00
2019-02-27T14:33:54.234Z,13992.00
2019-02-27T14:34:53.246Z,13888.00
2019-02-27T14:35:53.256Z,13720.00
2019-02-27T14:36:53.225Z,13540.00
2019-02-27T14:37:53.214Z,13312.00
2019-02-27T14:38:53.423Z,13116.00
2019-02-27T14:39:53.192Z,12972.00
2019-02-27T14:40:53.207Z,12776.00
2019-02-27T14:41:53.172Z,12448.00
2019-02-27T14:42:54.868Z,11912.00
2019-02-27T14:43:53.150Z,11492.00
2019-02-27T14:44:53.141Z,11084.00
2019-02-27T14:45:53.278Z,10852.00
2019-02-27T14:46:53.119Z,10612.00
2019-02-27T14:47:53.108Z,10396.00
2019-02-27T14:48:53.102Z,10264.00
2019-02-27T14:49:53.089Z,10220.00
2019-02-27T14:50:53.078Z,10192.00
2019-02-27T14:51:53.090Z,10192.00
2019-02-27T14:52:53.057Z,10180.00
2019-02-27T14:53:55.713Z,10176.00
2019-02-27T14:54:53.048Z,10204.00
2019-02-27T14:55:53.026Z,10256.00
2019-02-27T14:56:53.040Z,10348.00
2019-02-27T14:57:53.004Z,10576.00
2019-02-27T14:58:53.011Z,10860.00
2019-02-27T14:59:52.982Z,11084.00
2019-02-27T15:00:52.974Z,11144.00
2019-02-27T15:01:52.989Z,11108.00
2019-02-27T15:02:55.682Z,11036.00
2019-02-27T15:03:52.977Z,10912.00
2019-02-27T15:04:52.932Z,10816.00
2019-02-27T15:05:52.922Z,10728.00
2019-02-27T15:06:52.954Z,10688.00
2019-02-27T15:07:54.636Z,10576.00
2019-02-27T15:08:58.028Z,10352.00
2019-02-27T15:09:53.887Z,10104.00
2019-02-27T15:10:52.871Z,9932.00
2019-02-27T15:11:52.880Z,9840.00
2019-02-27T15:12:55.176Z,9832.00
2019-02-27T15:13:52.840Z,9852.00
2019-02-27T15:14:52.830Z,9804.00
2019-02-27T15:15:52.820Z,9672.00
2019-02-27T15:16:52.829Z,9544.00
2019-02-27T15:17:52.800Z,9448.00
2019-02-27T15:18:55.155Z,9432.00
2019-02-27T15:19:52.776Z,9468.00
2019-02-27T15:20:52.766Z,9492.00
2019-02-27T15:21:52.779Z,9296.00
2019-02-27T15:22:53.654Z,8824.00
2019-02-27T15:23:52.737Z,8492.00
2019-02-27T15:24:52.729Z,8692.00
2019-02-27T15:25:52.718Z,9064.00
2019-02-27T15:26:52.732Z,8996.00
2019-02-27T15:27:52.693Z,8704.00
2019-02-27T15:28:52.703Z,8400.00
2019-02-27T15:29:52.675Z,8292.00
2019-02-27T15:30:52.664Z,8372.00
2019-02-27T15:31:54.775Z,8592.00
2019-02-27T15:32:52.643Z,9960.00
2019-02-27T15:33:54.033Z,11212.00
2019-02-27T15:34:52.623Z,9764.00
2019-02-27T15:35:55.037Z,8104.00
2019-02-27T15:36:52.624Z,6640.00
2019-02-27T15:37:52.590Z,5236.00
2019-02-27T15:38:52.579Z,4604.00
2019-02-27T15:39:55.028Z,4132.00
2019-02-27T15:40:52.566Z,3828.00
2019-02-27T15:41:52.662Z,3636.00
2019-02-27T15:42:52.537Z,3416.00
2019-02-27T15:43:59.650Z,3248.00
2019-02-27T15:44:53.518Z,3076.00
2019-02-27T15:45:52.510Z,2760.00
2019-02-27T15:46:53.513Z,2576.00
2019-02-27T15:47:52.515Z,2532.00
2019-02-27T15:48:52.886Z,2512.00
2019-02-27T15:49:52.490Z,2524.00
2019-02-27T15:50:56.327Z,2608.00
2019-02-27T15:51:52.447Z,2748.00
2019-02-27T15:52:52.461Z,2816.00
2019-02-27T15:53:52.441Z,2752.00
2019-02-27T15:54:52.416Z,2636.00
2019-02-27T15:55:52.402Z,2532.00
2019-02-27T15:56:52.391Z,2424.00
2019-02-27T15:57:53.748Z,2340.00
2019-02-27T15:58:52.368Z,2292.00
2019-02-27T15:59:52.379Z,2268.00
2019-02-27T16:00:53.333Z,2244.00
2019-02-27T16:01:52.339Z,2216.00
2019-02-27T16:02:52.350Z,2176.00
2019-02-27T16:03:52.321Z,2140.00
2019-02-27T16:04:55.505Z,2104.00
2019-02-27T16:05:52.294Z,2072.00
2019-02-27T16:06:52.282Z,2040.00
2019-02-27T16:07:52.312Z,2012.00
2019-02-27T16:08:57.336Z,1984.00
2019-02-27T16:09:53.253Z,1956.00
2019-02-27T16:10:55.164Z,1932.00
2019-02-27T16:11:52.597Z,1908.00
2019-02-27T16:12:52.218Z,1880.00
2019-02-27T16:13:52.229Z,1860.00
2019-02-27T16:14:52.214Z,1840.00
2019-02-27T16:15:52.186Z,1816.00
2019-02-27T16:16:54.104Z,1796.00
2019-02-27T16:17:53.165Z,1768.00
2019-02-27T16:18:52.175Z,1744.00
2019-02-27T16:19:54.003Z,1720.00
2019-02-27T16:20:52.132Z,1688.00
2019-02-27T16:21:56.980Z,1664.00
2019-02-27T16:22:53.113Z,1636.00
2019-02-27T16:23:52.124Z,1612.00
2019-02-27T16:24:52.090Z,1584.00
2019-02-27T16:25:53.708Z,1560.00
2019-02-27T16:26:52.069Z,1536.00
2019-02-27T16:27:52.064Z,1508.00
2019-02-27T16:28:52.072Z,1484.00
2019-02-27T16:29:54.122Z,1452.00
2019-02-27T16:30:52.027Z,1420.00
2019-02-27T16:31:52.016Z,1388.00
2019-02-27T16:32:52.010Z,1356.00
2019-02-27T16:33:52.019Z,1328.00
2019-02-27T16:34:51.983Z,1296.00
2019-02-27T16:35:51.978Z,1264.00
2019-02-27T16:36:51.962Z,1236.00
2019-02-27T16:37:56.323Z,1208.00
2019-02-27T16:38:52.962Z,1172.00
2019-02-27T16:39:51.930Z,1144.00
2019-02-27T16:40:52.578Z,1112.00
2019-02-27T16:41:51.914Z,1080.00
2019-02-27T16:42:51.898Z,1044.00
2019-02-27T16:43:51.919Z,1016.00
2019-02-27T16:44:54.355Z,980.00
2019-02-27T16:45:52.872Z,948.00
2019-02-27T16:46:51.856Z,916.00
2019-02-27T16:47:53.985Z,864.00
2019-02-27T16:48:52.862Z,844.00
2019-02-27T16:49:51.824Z,812.00
2019-02-27T16:50:51.816Z,780.00
2019-02-27T16:51:51.800Z,744.00
2019-02-27T16:52:51.805Z,712.00
2019-02-27T16:53:52.586Z,680.00
2019-02-27T16:54:51.791Z,644.00
2019-02-27T16:55:51.759Z,612.00
2019-02-27T16:56:51.789Z,576.00
2019-02-27T16:57:56.482Z,544.00
2019-02-27T16:58:52.729Z,512.00
2019-02-27T16:59:51.746Z,484.00
2019-02-27T17:00:54.366Z,452.00
2019-02-27T17:01:51.696Z,420.00
2019-02-27T17:02:51.684Z,392.00
2019-02-27T17:03:59.448Z,364.00
2019-02-27T17:04:52.685Z,336.00
2019-02-27T17:05:51.650Z,308.00
2019-02-27T17:06:52.303Z,288.00
2019-02-27T17:07:51.631Z,264.00
2019-02-27T17:08:51.618Z,236.00
2019-02-27T17:09:51.636Z,216.00
2019-02-27T17:10:52.070Z,196.00
2019-02-27T17:11:51.588Z,176.00
2019-02-27T17:12:51.579Z,160.00
2019-02-27T17:13:51.571Z,144.00
2019-02-27T17:14:51.575Z,124.00
2019-02-27T17:15:51.546Z,112.00
2019-02-27T17:16:51.532Z,100.00
2019-02-27T17:17:53.387Z,88.00
2019-02-27T17:18:51.520Z,76.00
2019-02-27T17:19:53.082Z,64.00
2019-02-27T17:20:51.493Z,56.00
2019-02-27T17:21:51.492Z,52.00
2019-02-27T17:22:51.473Z,40.00
2019-02-27T17:23:51.471Z,36.00
2019-02-27T17:24:52.145Z,28.00
2019-02-27T17:25:51.439Z,28.00
2019-02-27T17:26:51.431Z,20.00
2019-02-27T17:27:53.463Z,20.00
2019-02-27T17:28:51.697Z,12.00
2019-02-27T17:29:51.421Z,12.00
2019-02-27T17:30:51.387Z,12.00
2019-02-27T17:31:55.298Z,12.00
2019-02-27T17:32:51.378Z,8.00
2019-02-27T17:33:51.350Z,4.00
2019-02-27T17:34:51.393Z,4.00
2019-02-27T17:35:53.084Z,4.00
2019-02-27T17:36:51.322Z,4.00
2019-02-27T17:37:51.308Z,4.00
2019-02-27T17:38:51.296Z,4.00
2019-02-27T17:39:51.287Z,0.00
2019-02-27T17:40:52.498Z,4.00
2019-02-27T17:41:52.236Z,4.00
2019-02-27T17:42:53.509Z,0.00
2019-02-27T17:43:51.616Z,0.00
2019-02-27T17:44:51.237Z,0.00
2019-02-27T17:45:51.244Z,0.00
2019-02-27T17:46:51.706Z,0.00
2019-02-27T17:47:51.205Z,0.00
2019-02-27T17:48:51.189Z,0.00
2019-02-27T17:49:51.181Z,0.00
2019-02-27T17:50:51.193Z,0.00
2019-02-27T17:51:51.160Z,0.00
2019-02-27T17:52:51.149Z,0.00
2019-02-27T17:53:51.134Z,0.00
2019-02-27T17:54:51.123Z,0.00
2019-02-27T17:55:51.142Z,0.00
2019-02-27T17:56:51.110Z,0.00
2019-02-27T17:57:51.096Z,0.00
2019-02-27T17:58:51.080Z,0.00
2019-02-27T17:59:51.073Z,0.00
2019-02-27T18:00:51.445Z,0.00
2019-02-27T18:01:51.053Z,0.00
2019-02-27T18:02:51.042Z,0.00
2019-02-27T18:03:51.033Z,0.00
2019-02-27T18:04:53.692Z,0.00
2019-02-27T18:05:51.007Z,0.00
2019-02-27T18:06:51.021Z,0.00
2019-02-27T18:07:50.983Z,0.00
2019-02-27T18:08:52.412Z,0.00
2019-02-27T18:09:50.967Z,0.00
2019-02-27T18:10:50.972Z,0.00
2019-02-27T18:11:52.524Z,0.00
2019-02-27T18:12:51.697Z,0.00
2019-02-27T18:13:50.930Z,0.00
2019-02-27T18:14:50.925Z,0.00
2019-02-27T18:15:53.198Z,0.00
2019-02-27T18:16:50.892Z,0.00
2019-02-27T18:17:50.874Z,0.00
2019-02-27T18:18:50.864Z,0.00
2019-02-27T18:19:50.990Z,0.00
2019-02-27T18:20:50.877Z,0.00
2019-02-27T18:21:50.839Z,0.00
2019-02-27T18:22:50.864Z,0.00
2019-02-27T18:23:50.810Z,0.00
2019-02-27T18:24:50.799Z,0.00
2019-02-27T18:25:50.787Z,0.00
2019-02-27T18:26:51.286Z,0.00
2019-02-27T18:27:50.775Z,0.00
2019-02-27T18:28:50.761Z,0.00
2019-02-27T18:29:50.775Z,0.00
2019-02-27T18:30:53.118Z,0.00
2019-02-27T18:31:50.761Z,0.00
2019-02-27T18:32:50.717Z,0.00
2019-02-27T18:33:50.701Z,0.00
2019-02-27T18:34:54.254Z,0.00
2019-02-27T18:35:50.682Z,0.00
2019-02-27T18:36:51.273Z,0.00
2019-02-27T18:37:54.285Z,0.00
2019-02-27T18:38:50.651Z,0.00
2019-02-27T18:39:50.638Z,0.00
2019-02-27T18:40:50.632Z,0.00
2019-02-27T18:41:50.648Z,0.00
2019-02-27T18:42:55.210Z,0.00
2019-02-27T18:43:52.907Z,0.00
2019-02-27T18:44:50.584Z,0.00
2019-02-27T18:45:50.789Z,0.00
2019-02-27T18:46:50.585Z,0.00
2019-02-27T18:47:50.558Z,0.00
2019-02-27T18:48:50.539Z,0.00
2019-02-27T18:49:52.276Z,0.00
2019-02-27T18:50:50.524Z,0.00
2019-02-27T18:51:50.531Z,0.00
2019-02-27T18:52:50.497Z,0.00
2019-02-27T18:53:50.489Z,0.00
2019-02-27T18:54:50.478Z,0.00
2019-02-27T18:55:50.481Z,0.00
2019-02-27T18:56:50.480Z,0.00
2019-02-27T18:57:50.457Z,0.00
2019-02-27T18:58:51.990Z,0.00
2019-02-27T18:59:51.428Z,0.00
2019-02-27T19:00:50.440Z,0.00
2019-02-27T19:01:50.425Z,0.00
2019-02-27T19:02:51.991Z,0.00
2019-02-27T19:03:50.380Z,0.00
2019-02-27T19:04:50.371Z,0.00
2019-02-27T19:05:50.363Z,0.00
2019-02-27T19:06:50.396Z,0.00
2019-02-27T19:07:53.675Z,0.00
2019-02-27T19:08:50.365Z,0.00
2019-02-27T19:09:50.316Z,0.00
2019-02-27T19:10:50.306Z,0.00
2019-02-27T19:11:50.908Z,0.00
2019-02-27T19:12:50.309Z,0.00
2019-02-27T19:13:50.285Z,0.00
2019-02-27T19:14:50.319Z,0.00
2019-02-27T19:15:50.253Z,0.00
2019-02-27T19:16:52.162Z,0.00
2019-02-27T19:17:50.257Z,0.00
2019-02-27T19:18:50.237Z,0.00
2019-02-27T19:19:50.214Z,0.00
2019-02-27T19:20:50.198Z,0.00
2019-02-27T19:21:50.188Z,0.00
2019-02-27T19:22:50.201Z,0.00
2019-02-27T19:23:52.707Z,0.00